Terminal Aerodrome Forecast
Issued by NWS

Current Version | Previous Version | Graphics & Text | Print | Product List | Glossary On
Versions: 1 2 3 4 5 6 7 8 9 10 11 12 13 14 15 16 17 18 19 20 21 22 23 24 25 26 27 28 29 30
000
FTUS41 KILN 231732 AAA
TAFLUK
TAF AMD
KLUK 231732Z 2318/2418 20010G18KT 2SM SHRA VCTS OVC045CB
      TEMPO 2318/2320 VRB15G30KT 1/2SM SHRA OVC012
     FM240100 23004KT P6SM VCSH OVC019
     FM240400 32006KT P6SM BKN060
     FM240800 27005KT P6SM SCT250
     FM241500 28010G18KT P6SM SCT050=

USA.gov is the U.S. government's official web portal to all federal, state and local government web resources and services.